createdAt,value
2022-11-16T00:01:03.488Z,3.7
2022-11-16T00:02:19.715Z,3.7
2022-11-16T00:03:35.962Z,3.7
2022-11-16T00:04:52.192Z,3.6
2022-11-16T00:06:08.445Z,3.6
2022-11-16T00:07:24.685Z,3.6
2022-11-16T00:08:40.924Z,3.6
2022-11-16T00:09:57.171Z,3.5
2022-11-16T00:11:12.427Z,3.5
2022-11-16T00:12:27.689Z,3.5
2022-11-16T00:13:43.917Z,3.5
2022-11-16T00:15:00.155Z,3.5
2022-11-16T00:16:16.393Z,3.5
2022-11-16T00:17:32.646Z,3.5
2022-11-16T00:18:48.875Z,3.5
2022-11-16T00:20:05.137Z,3.5
2022-11-16T00:21:21.360Z,3.5
2022-11-16T00:22:37.608Z,3.5
2022-11-16T00:23:53.835Z,3.5
2022-11-16T00:25:09.094Z,3.6
2022-11-16T00:26:24.369Z,3.6
2022-11-16T00:27:40.602Z,3.6
2022-11-16T00:28:56.838Z,3.7
2022-11-16T00:30:13.092Z,3.7
2022-11-16T00:31:29.326Z,3.8
2022-11-16T00:32:45.570Z,3.7
2022-11-16T00:34:01.808Z,3.7
2022-11-16T00:35:18.039Z,3.8
2022-11-16T00:36:34.291Z,3.8
2022-11-16T00:37:50.525Z,3.8
2022-11-16T00:39:06.762Z,3.9
2022-11-16T00:40:23.012Z,3.9
2022-11-16T00:41:39.237Z,4
2022-11-16T00:42:54.484Z,4
2022-11-16T00:44:10.737Z,4
2022-11-16T00:45:26.985Z,4
2022-11-16T00:46:43.222Z,4
2022-11-16T00:47:59.450Z,4.1
2022-11-16T00:49:15.692Z,4.1
2022-11-16T00:50:31.936Z,4.1
2022-11-16T00:51:47.202Z,4.1
2022-11-16T00:53:02.459Z,4.1
2022-11-16T00:54:17.711Z,4.1
2022-11-16T00:55:32.973Z,4.1
2022-11-16T00:56:49.216Z,4.1
2022-11-16T00:58:05.438Z,4.1
2022-11-16T00:59:21.703Z,4.2
2022-11-16T01:00:37.946Z,4.2
2022-11-16T01:01:54.172Z,4.3
2022-11-16T01:03:10.408Z,4.2
2022-11-16T01:04:26.657Z,4.3
2022-11-16T01:05:42.889Z,4.2
2022-11-16T01:06:59.134Z,4.2
2022-11-16T01:08:15.383Z,4.2
2022-11-16T01:09:31.617Z,4.3
2022-11-16T01:10:47.857Z,4.3
2022-11-16T01:12:03.118Z,4.3
2022-11-16T01:13:19.359Z,4.2
2022-11-16T01:14:35.600Z,4.3
2022-11-16T01:15:51.819Z,4.3
2022-11-16T01:17:08.066Z,4.3
2022-11-16T01:18:24.307Z,4.3
2022-11-16T01:19:40.565Z,4.4
2022-11-16T01:20:55.821Z,4.4
2022-11-16T01:22:11.050Z,4.4
2022-11-16T01:23:27.302Z,4.4
2022-11-16T01:24:43.532Z,4.4
2022-11-16T01:25:59.788Z,4.4
2022-11-16T01:27:16.023Z,4.5
2022-11-16T01:28:32.281Z,4.5
2022-11-16T01:29:48.514Z,4.5
2022-11-16T01:31:04.743Z,4.5
2022-11-16T01:32:20.982Z,4.5
2022-11-16T01:33:37.231Z,4.5
2022-11-16T01:34:53.473Z,4.5
2022-11-16T01:36:09.706Z,4.5
2022-11-16T01:37:25.949Z,4.4
2022-11-16T01:38:41.213Z,4.4
2022-11-16T01:39:57.439Z,4.4
2022-11-16T01:41:13.684Z,4.3
2022-11-16T01:42:29.923Z,4.2
2022-11-16T01:43:46.162Z,4.2
2022-11-16T01:45:02.409Z,4.1
2022-11-16T01:46:18.652Z,4.1
2022-11-16T01:47:33.898Z,4.1
2022-11-16T01:48:49.158Z,4
2022-11-16T01:50:04.410Z,4
2022-11-16T01:51:19.667Z,4
2022-11-16T01:52:35.918Z,3.9
2022-11-16T01:53:52.154Z,3.9
2022-11-16T01:55:08.386Z,3.9
2022-11-16T01:56:24.639Z,3.9
2022-11-16T01:57:40.874Z,3.9
2022-11-16T01:58:57.117Z,3.8
2022-11-16T02:00:13.368Z,3.9
2022-11-16T02:01:29.600Z,3.8
2022-11-16T02:02:45.838Z,3.8
2022-11-16T02:04:02.073Z,3.8
2022-11-16T02:05:18.305Z,3.9
2022-11-16T02:06:34.565Z,3.9
2022-11-16T02:07:49.820Z,3.9
2022-11-16T02:09:06.070Z,3.9
2022-11-16T02:10:22.289Z,3.9
2022-11-16T02:11:38.530Z,3.9
2022-11-16T02:12:54.774Z,3.9
2022-11-16T02:14:11.004Z,3.9
2022-11-16T02:15:27.259Z,3.9
2022-11-16T02:16:42.523Z,3.9
2022-11-16T02:17:57.776Z,3.9
2022-11-16T02:19:14.016Z,3.8
2022-11-16T02:20:30.266Z,3.8
2022-11-16T02:21:46.502Z,3.8
2022-11-16T02:23:02.736Z,3.8
2022-11-16T02:24:18.973Z,3.8
2022-11-16T02:25:35.214Z,3.8
2022-11-16T02:26:51.446Z,3.8
2022-11-16T02:28:07.694Z,3.8
2022-11-16T02:29:23.931Z,3.8
2022-11-16T02:30:40.159Z,3.8
2022-11-16T02:31:56.418Z,3.8
2022-11-16T02:33:12.665Z,3.8
2022-11-16T02:34:28.892Z,3.8
2022-11-16T02:35:44.141Z,3.9
2022-11-16T02:37:00.386Z,3.8
2022-11-16T02:38:16.642Z,3.9
2022-11-16T02:39:32.877Z,3.9
2022-11-16T02:40:49.112Z,3.9
2022-11-16T02:42:05.357Z,3.9
2022-11-16T02:43:20.606Z,3.9
2022-11-16T02:44:35.863Z,4
2022-11-16T02:45:51.130Z,4
2022-11-16T02:47:06.391Z,4
2022-11-16T02:48:21.646Z,4
2022-11-16T02:49:36.886Z,4
2022-11-16T02:50:52.167Z,4
2022-11-16T02:52:07.415Z,4
2022-11-16T02:53:23.650Z,4
2022-11-16T02:54:39.900Z,4
2022-11-16T02:55:56.134Z,4
2022-11-16T02:57:12.377Z,4
2022-11-16T02:58:28.623Z,4
2022-11-16T02:59:44.858Z,4
2022-11-16T03:01:01.080Z,4
2022-11-16T03:02:17.341Z,4
2022-11-16T03:03:33.583Z,4
2022-11-16T03:04:49.822Z,4
2022-11-16T03:06:06.047Z,4
2022-11-16T03:07:22.283Z,3.9
2022-11-16T03:08:37.548Z,3.9
2022-11-16T03:09:53.802Z,4
2022-11-16T03:11:10.036Z,4
2022-11-16T03:12:26.259Z,4
2022-11-16T03:13:42.506Z,4
2022-11-16T03:14:58.762Z,4
2022-11-16T03:16:15.004Z,4
2022-11-16T03:17:30.256Z,4
2022-11-16T03:18:45.521Z,4
2022-11-16T03:20:01.757Z,4
2022-11-16T03:21:17.999Z,4.1
2022-11-16T03:22:34.240Z,4
2022-11-16T03:23:50.482Z,4.1
2022-11-16T03:25:06.708Z,4.1
2022-11-16T03:26:22.949Z,4.1
2022-11-16T03:27:39.190Z,4.1
2022-11-16T03:28:55.436Z,4.1
2022-11-16T03:30:11.655Z,4.1
2022-11-16T03:31:27.912Z,4.1
2022-11-16T03:32:44.162Z,4.1
2022-11-16T03:34:00.375Z,4.1
2022-11-16T03:35:15.637Z,4.1
2022-11-16T03:36:31.898Z,4.1
2022-11-16T03:37:48.113Z,4.1
2022-11-16T03:39:04.379Z,4.2
2022-11-16T03:40:20.605Z,4.1
2022-11-16T03:41:36.843Z,4.1
2022-11-16T03:42:53.090Z,4.1
2022-11-16T03:44:08.364Z,4.1
2022-11-16T03:45:23.619Z,4.1
2022-11-16T03:46:38.862Z,4.1
2022-11-16T03:47:54.121Z,4.1
2022-11-16T03:49:09.398Z,4.1
2022-11-16T03:50:24.644Z,4.1
2022-11-16T03:51:40.891Z,4.1
2022-11-16T03:52:57.131Z,4.1
2022-11-16T03:54:13.363Z,4.1
2022-11-16T03:55:29.607Z,4.2
2022-11-16T03:56:45.825Z,4.1
2022-11-16T03:58:02.092Z,4.1
2022-11-16T03:59:18.323Z,4.2
2022-11-16T04:00:34.560Z,4.2
2022-11-16T04:01:50.804Z,4.2
2022-11-16T04:03:07.044Z,4.2
2022-11-16T04:04:23.272Z,4.2
2022-11-16T04:05:39.526Z,4.2
2022-11-16T04:06:54.781Z,4.2
2022-11-16T04:08:11.034Z,4.2
2022-11-16T04:09:27.247Z,4.2
2022-11-16T04:10:43.508Z,4.2
2022-11-16T04:11:59.741Z,4.2
2022-11-16T04:13:15.990Z,4.2
2022-11-16T04:14:32.000Z,4.3
2022-11-16T04:15:47.468Z,4.3
2022-11-16T04:17:02.738Z,4.3
2022-11-16T04:18:18.015Z,4.3
2022-11-16T04:19:33.244Z,4.3
2022-11-16T04:20:48.519Z,4.3
2022-11-16T04:22:03.753Z,4.3
2022-11-16T04:23:20.017Z,4.3
2022-11-16T04:24:36.259Z,4.4
2022-11-16T04:25:51.520Z,4.4
2022-11-16T04:27:07.762Z,4.4
2022-11-16T04:28:24.008Z,4.4
2022-11-16T04:29:40.216Z,4.4
2022-11-16T04:30:56.473Z,4.4
2022-11-16T04:32:12.720Z,4.5
2022-11-16T04:33:28.956Z,4.5
2022-11-16T04:34:45.182Z,4.5
2022-11-16T04:36:01.441Z,4.5
2022-11-16T04:37:17.655Z,4.5
2022-11-16T04:38:33.901Z,4.5
2022-11-16T04:39:50.163Z,4.5
2022-11-16T04:41:06.395Z,4.5
2022-11-16T04:42:21.638Z,4.5
2022-11-16T04:43:37.901Z,4.5
2022-11-16T04:44:54.128Z,4.5
2022-11-16T04:46:10.373Z,4.5
2022-11-16T04:47:25.621Z,4.5
2022-11-16T04:48:40.894Z,4.5
2022-11-16T04:49:56.148Z,4.5
2022-11-16T04:51:11.413Z,4.5
2022-11-16T04:52:27.633Z,4.5
2022-11-16T04:53:43.869Z,4.5
2022-11-16T04:55:00.136Z,4.6
2022-11-16T04:56:16.369Z,4.6
2022-11-16T04:57:32.606Z,4.6
2022-11-16T04:58:48.860Z,4.6
2022-11-16T05:00:05.097Z,4.5
2022-11-16T05:01:21.322Z,4.6
2022-11-16T05:02:37.565Z,4.6
2022-11-16T05:03:53.806Z,4.6
2022-11-16T05:05:10.055Z,4.6
2022-11-16T05:06:26.291Z,4.5
2022-11-16T05:07:41.548Z,4.6
2022-11-16T05:08:57.770Z,4.6
2022-11-16T05:10:14.018Z,4.6
2022-11-16T05:11:30.262Z,4.6
2022-11-16T05:12:46.500Z,4.6
2022-11-16T05:14:02.741Z,4.6
2022-11-16T05:15:18.986Z,4.6
2022-11-16T05:16:34.243Z,4.6
2022-11-16T05:17:49.485Z,4.6
2022-11-16T05:19:04.776Z,4.6
2022-11-16T05:20:20.029Z,4.6
2022-11-16T05:21:36.273Z,4.6
2022-11-16T05:22:52.495Z,4.6
2022-11-16T05:24:08.721Z,4.6
2022-11-16T05:25:24.979Z,4.6
2022-11-16T05:26:41.231Z,4.6
2022-11-16T05:27:57.461Z,4.6
2022-11-16T05:29:13.680Z,4.7
2022-11-16T05:30:29.920Z,4.7
2022-11-16T05:31:46.175Z,4.7
2022-11-16T05:33:02.418Z,4.7
2022-11-16T05:34:18.660Z,4.7
2022-11-16T05:35:34.910Z,4.7
2022-11-16T05:36:50.163Z,4.7
2022-11-16T05:38:06.392Z,4.7
2022-11-16T05:39:22.618Z,4.7
2022-11-16T05:40:38.855Z,4.7
2022-11-16T05:41:55.096Z,4.7
2022-11-16T05:43:11.334Z,4.7
2022-11-16T05:44:27.608Z,4.7
2022-11-16T05:45:42.869Z,4.7
2022-11-16T05:46:58.120Z,4.7
2022-11-16T05:48:13.377Z,4.7
2022-11-16T05:49:28.640Z,4.7
2022-11-16T05:50:44.872Z,4.7
2022-11-16T05:52:01.115Z,4.7
2022-11-16T05:53:17.349Z,4.7
2022-11-16T05:54:33.579Z,4.6
2022-11-16T05:58:22.298Z,4.7
2022-11-16T05:59:38.539Z,4.7
2022-11-16T06:00:54.784Z,4.6
2022-11-16T06:09:48.451Z,4.7
2022-11-16T06:19:58.382Z,4.7
2022-11-16T06:21:14.625Z,4.8
2022-11-16T06:23:47.090Z,4.8
2022-11-16T06:25:03.333Z,4.8
2022-11-16T06:27:35.811Z,4.8
2022-11-16T06:28:52.061Z,4.8
2022-11-16T06:30:08.298Z,4.8
2022-11-16T06:31:24.550Z,4.8
2022-11-16T06:32:40.782Z,4.8
2022-11-16T06:33:57.014Z,4.8
2022-11-16T06:36:29.575Z,4.8
2022-11-16T06:37:45.861Z,4.9
2022-11-16T06:39:02.173Z,4.9
2022-11-16T06:41:34.774Z,4.9
2022-11-16T06:44:07.377Z,4.9
2022-11-16T06:46:39.988Z,4.9
2022-11-16T06:47:56.272Z,4.9
2022-11-16T06:49:12.583Z,4.9
2022-11-16T06:50:28.877Z,4.9
2022-11-16T06:53:01.608Z,5
2022-11-16T06:54:18.022Z,5
2022-11-16T06:56:50.851Z,5
2022-11-16T06:58:06.383Z,5
2022-11-16T06:59:22.806Z,4.9
2022-11-16T07:00:39.212Z,5
2022-11-16T07:01:55.626Z,5
2022-11-16T07:03:12.050Z,5
2022-11-16T07:04:28.457Z,5
2022-11-16T07:05:44.878Z,5
2022-11-16T07:07:01.292Z,5
2022-11-16T07:08:17.696Z,5
2022-11-16T07:09:34.120Z,5
2022-11-16T07:12:06.955Z,5
2022-11-16T07:13:23.356Z,5.1
2022-11-16T07:14:38.909Z,5
2022-11-16T07:17:11.744Z,5
2022-11-16T07:18:28.165Z,5.1
2022-11-16T07:19:44.570Z,5.1
2022-11-16T07:22:17.410Z,5.1
2022-11-16T07:23:33.823Z,5.1
2022-11-16T07:24:49.359Z,5.1
2022-11-16T07:26:05.773Z,5.2
2022-11-16T07:27:22.175Z,5.2
2022-11-16T07:28:38.596Z,5.2
2022-11-16T07:29:55.006Z,5.3
2022-11-16T07:31:11.429Z,5.3
2022-11-16T07:32:27.841Z,5.4
2022-11-16T07:33:44.250Z,5.3
2022-11-16T07:35:00.670Z,5.4
2022-11-16T07:37:33.507Z,5.4
2022-11-16T07:38:49.929Z,5.5
2022-11-16T07:40:05.474Z,5.5
2022-11-16T07:41:21.901Z,5.5
2022-11-16T07:42:38.296Z,5.5
2022-11-16T07:43:54.723Z,5.5
2022-11-16T07:45:10.264Z,5.6
2022-11-16T07:46:26.661Z,5.6
2022-11-16T07:47:43.076Z,5.6
2022-11-16T07:48:59.501Z,5.6
2022-11-16T07:50:15.928Z,5.6
2022-11-16T07:51:32.321Z,5.6
2022-11-16T07:52:48.745Z,5.7
2022-11-16T07:54:05.157Z,5.7
2022-11-16T07:55:21.573Z,5.7
2022-11-16T07:56:37.982Z,5.8
2022-11-16T07:57:54.397Z,5.8
2022-11-16T07:59:10.811Z,5.8
2022-11-16T08:00:26.371Z,5.9
2022-11-16T08:02:58.336Z,6
2022-11-16T08:04:14.737Z,6
2022-11-16T08:05:31.155Z,6
2022-11-16T08:08:03.997Z,6.1
2022-11-16T08:09:20.408Z,6.2
2022-11-16T08:10:36.825Z,6.2
2022-11-16T08:13:09.631Z,6.3
2022-11-16T08:14:26.063Z,6.4
2022-11-16T08:15:42.474Z,6.4
2022-11-16T08:16:58.882Z,6.5
2022-11-16T08:18:15.314Z,6.6
2022-11-16T08:19:30.854Z,6.6
2022-11-16T08:20:47.282Z,6.7
2022-11-16T08:24:36.514Z,7
2022-11-16T08:25:52.936Z,7.2
2022-11-16T08:27:08.467Z,7.3
2022-11-16T08:28:24.893Z,7.4
2022-11-16T08:29:41.305Z,7.5
2022-11-16T08:30:57.718Z,7.5
2022-11-16T08:32:14.120Z,7.4
2022-11-16T08:33:30.546Z,7.3
2022-11-16T08:34:46.946Z,7.3
2022-11-16T08:36:03.376Z,7.3
2022-11-16T08:38:36.193Z,7.3
2022-11-16T08:39:52.616Z,7.3
2022-11-16T08:41:09.034Z,7.3
2022-11-16T08:44:58.389Z,7.3
2022-11-16T08:46:14.811Z,7.3
2022-11-16T08:47:31.231Z,7.3
2022-11-16T08:48:46.760Z,7.3
2022-11-16T08:50:03.184Z,7.3
2022-11-16T08:52:36.011Z,7.3
2022-11-16T08:53:52.422Z,7.3
2022-11-16T08:55:08.848Z,7.3
2022-11-16T08:56:25.256Z,7.4
2022-11-16T08:57:41.662Z,7.4
2022-11-16T08:58:58.084Z,7.3
2022-11-16T09:00:14.522Z,7.4
2022-11-16T09:01:30.901Z,7.4
2022-11-16T09:02:47.315Z,7.4
2022-11-16T09:04:03.744Z,7.3
2022-11-16T09:05:20.138Z,7.4
2022-11-16T09:09:09.403Z,7.4
2022-11-16T09:10:25.807Z,7.4
2022-11-16T09:11:42.230Z,7.4
2022-11-16T09:14:15.063Z,7.4
2022-11-16T09:15:31.468Z,7.4
2022-11-16T09:16:47.874Z,7.3
2022-11-16T09:18:03.422Z,7.3
2022-11-16T09:19:19.828Z,7.3
2022-11-16T09:20:36.237Z,7.4
2022-11-16T09:21:52.663Z,7.4
2022-11-16T09:24:25.487Z,7.4
2022-11-16T09:25:41.900Z,7.3
2022-11-16T09:26:58.328Z,7.4
2022-11-16T09:28:14.741Z,7.4
2022-11-16T09:29:31.147Z,7.4
2022-11-16T09:30:47.567Z,7.4
2022-11-16T09:32:03.974Z,7.4
2022-11-16T09:33:20.389Z,7.4
2022-11-16T09:34:36.805Z,7.4
2022-11-16T09:35:53.222Z,7.4
2022-11-16T09:37:09.626Z,7.4
2022-11-16T09:38:26.049Z,7.4
2022-11-16T09:39:42.464Z,7.4
2022-11-16T09:40:58.890Z,7.4
2022-11-16T09:42:15.294Z,7.5
2022-11-16T09:44:48.120Z,7.5
2022-11-16T09:46:04.537Z,7.5
2022-11-16T09:47:20.948Z,7.5
2022-11-16T09:48:37.359Z,7.5
2022-11-16T09:49:53.784Z,7.5
2022-11-16T09:51:10.204Z,7.5
2022-11-16T09:52:25.750Z,7.5
2022-11-16T09:53:42.171Z,7.5
2022-11-16T09:54:58.571Z,7.5
2022-11-16T09:56:15.004Z,7.5
2022-11-16T09:57:31.408Z,7.5
2022-11-16T09:58:46.958Z,7.5
2022-11-16T10:00:03.360Z,7.6
2022-11-16T10:01:19.783Z,7.6
2022-11-16T10:02:36.194Z,7.6
2022-11-16T10:05:09.015Z,7.6
2022-11-16T10:06:25.428Z,7.6
2022-11-16T10:07:41.858Z,7.6
2022-11-16T10:10:14.680Z,7.7
2022-11-16T10:11:31.085Z,7.7
2022-11-16T10:12:46.645Z,7.7
2022-11-16T10:14:03.060Z,7.7
2022-11-16T10:15:19.478Z,7.7
2022-11-16T10:16:35.880Z,7.8
2022-11-16T10:17:52.317Z,7.8
2022-11-16T10:20:25.140Z,7.7
2022-11-16T10:21:41.558Z,7.8
2022-11-16T10:22:57.960Z,7.7
2022-11-16T10:25:30.808Z,7.8
2022-11-16T10:26:47.214Z,7.8
2022-11-16T10:28:02.748Z,7.9
2022-11-16T10:29:19.160Z,7.8
2022-11-16T10:30:35.576Z,7.8
2022-11-16T10:31:51.978Z,7.8
2022-11-16T10:33:08.405Z,7.8
2022-11-16T10:35:41.236Z,7.9
2022-11-16T10:36:57.638Z,7.9
2022-11-16T10:38:14.073Z,7.9
2022-11-16T10:40:46.887Z,7.9
2022-11-16T10:42:03.297Z,7.8
2022-11-16T10:43:19.727Z,7.9
2022-11-16T10:45:52.538Z,7.9
2022-11-16T10:47:08.955Z,7.9
2022-11-16T10:48:24.500Z,8
2022-11-16T10:49:40.919Z,8
2022-11-16T10:50:57.323Z,8
2022-11-16T10:52:13.740Z,8
2022-11-16T10:53:30.155Z,8
2022-11-16T10:56:02.988Z,8
2022-11-16T10:57:19.406Z,8
2022-11-16T10:58:35.814Z,8.2
2022-11-16T10:59:52.236Z,8.2
2022-11-16T11:02:25.050Z,8.2
2022-11-16T11:03:41.465Z,8.3
2022-11-16T11:04:56.848Z,8.3
2022-11-16T11:06:13.084Z,8.3
2022-11-16T11:07:28.338Z,8.3
2022-11-16T11:08:44.584Z,8.3
2022-11-16T11:10:00.818Z,8.3
2022-11-16T11:11:17.070Z,8.4
2022-11-16T11:12:33.306Z,8.4
2022-11-16T11:13:49.540Z,8.4
2022-11-16T11:15:05.789Z,8.4
2022-11-16T11:16:22.021Z,8.4
2022-11-16T11:17:37.281Z,8.3
2022-11-16T11:18:53.526Z,8.4
2022-11-16T11:21:25.015Z,8.4
2022-11-16T11:22:41.256Z,8.4
2022-11-16T11:23:57.503Z,8.4
2022-11-16T11:25:13.750Z,8.4
2022-11-16T11:26:29.983Z,8.3
2022-11-16T11:29:02.452Z,8.2
2022-11-16T11:34:07.427Z,8.2
2022-11-16T11:35:23.650Z,8.2
2022-11-16T11:36:39.893Z,8.3
2022-11-16T11:37:56.129Z,8.3
2022-11-16T11:40:28.619Z,8.3
2022-11-16T11:41:44.863Z,8.2
2022-11-16T11:43:01.095Z,8.2
2022-11-16T11:44:17.326Z,8.2
2022-11-16T11:45:33.576Z,8.2
2022-11-16T11:46:49.819Z,8.2
2022-11-16T11:48:06.052Z,8.2
2022-11-16T11:50:38.539Z,8.2
2022-11-16T11:51:54.765Z,8.2
2022-11-16T11:53:11.002Z,8.3
2022-11-16T11:55:43.491Z,8.3
2022-11-16T11:56:59.729Z,8.3
2022-11-16T11:58:14.996Z,8.3
2022-11-16T11:59:30.256Z,8.3
2022-11-16T12:00:46.484Z,8.3
2022-11-16T12:02:02.727Z,8.3
2022-11-16T12:03:18.961Z,8.3
2022-11-16T12:04:35.202Z,8.3
2022-11-16T12:05:51.450Z,8.4
2022-11-16T12:07:07.694Z,8.4
2022-11-16T12:08:23.927Z,8.4
2022-11-16T12:09:40.162Z,8.4
2022-11-16T12:10:56.402Z,8.4
2022-11-16T12:12:11.657Z,8.4
2022-11-16T12:13:26.919Z,8.3
2022-11-16T12:14:43.167Z,8.3
2022-11-16T12:15:59.393Z,8.3
2022-11-16T12:17:15.652Z,8.2
2022-11-16T12:18:31.887Z,8.2
2022-11-16T12:19:48.119Z,8.2
2022-11-16T12:21:04.366Z,8.2
2022-11-16T12:22:20.593Z,8.2
2022-11-16T12:23:36.000Z,8.2
2022-11-16T12:24:53.082Z,8.2
2022-11-16T12:26:08.335Z,8.2
2022-11-16T12:27:23.588Z,8.2
2022-11-16T12:28:39.830Z,8.2
2022-11-16T12:29:56.064Z,8.2
2022-11-16T12:31:12.308Z,8.3
2022-11-16T12:32:28.548Z,8.2
2022-11-16T12:33:44.790Z,8.3
2022-11-16T12:35:01.034Z,8.2
2022-11-16T12:36:17.270Z,8.3
2022-11-16T12:37:33.509Z,8.2
2022-11-16T12:38:49.747Z,8.3
2022-11-16T12:40:05.993Z,8.2
2022-11-16T12:41:22.223Z,8.2
2022-11-16T12:42:38.469Z,8.2
2022-11-16T12:43:53.726Z,8.2
2022-11-16T12:45:09.973Z,8.2
2022-11-16T12:46:26.197Z,8.1
2022-11-16T12:47:42.458Z,8.1
2022-11-16T12:48:58.683Z,8.1
2022-11-16T12:50:14.918Z,8.1
2022-11-16T12:51:31.168Z,8.1
2022-11-16T12:52:46.427Z,8.1
2022-11-16T12:54:01.679Z,8.1
2022-11-16T12:55:16.950Z,8
2022-11-16T12:56:32.202Z,8
2022-11-16T12:57:48.435Z,8
2022-11-16T12:59:04.680Z,8
2022-11-16T13:00:20.924Z,8
2022-11-16T13:01:37.159Z,8
2022-11-16T13:02:53.390Z,8
2022-11-16T13:04:08.656Z,8
2022-11-16T13:05:24.893Z,8
2022-11-16T13:06:41.138Z,8
2022-11-16T13:07:57.378Z,8
2022-11-16T13:09:13.608Z,8
2022-11-16T13:10:29.850Z,7.9
2022-11-16T13:11:46.101Z,7.9
2022-11-16T13:13:02.329Z,7.9
2022-11-16T13:14:18.574Z,7.9
2022-11-16T13:15:34.821Z,7.9
2022-11-16T13:16:51.046Z,7.8
2022-11-16T13:18:07.296Z,7.8
2022-11-16T13:19:23.538Z,7.8
2022-11-16T13:20:38.788Z,7.8
2022-11-16T13:21:54.055Z,7.9
2022-11-16T13:23:09.295Z,7.8
2022-11-16T13:24:25.546Z,7.9
2022-11-16T13:25:41.779Z,7.9
2022-11-16T13:26:58.027Z,7.8
2022-11-16T13:28:14.257Z,7.8
2022-11-16T13:29:30.504Z,7.8
2022-11-16T13:30:46.729Z,7.7
2022-11-16T13:32:02.969Z,7.7
2022-11-16T13:33:19.227Z,7.8
2022-11-16T13:34:35.475Z,7.7
2022-11-16T13:35:51.702Z,7.7
2022-11-16T13:37:07.940Z,7.8
2022-11-16T13:38:24.182Z,7.7
2022-11-16T13:39:39.433Z,7.7
2022-11-16T13:40:55.670Z,7.7
2022-11-16T13:42:11.916Z,7.7
2022-11-16T13:43:28.162Z,7.7
2022-11-16T13:44:44.392Z,7.6
2022-11-16T13:46:00.645Z,7.6
2022-11-16T13:47:16.870Z,7.6
2022-11-16T13:48:32.140Z,7.5
2022-11-16T13:49:47.397Z,7.6
2022-11-16T13:51:03.619Z,7.6
2022-11-16T13:52:19.868Z,7.5
2022-11-16T13:53:36.100Z,7.5
2022-11-16T13:54:52.351Z,7.5
2022-11-16T13:56:08.582Z,7.5
2022-11-16T13:57:24.832Z,7.5
2022-11-16T13:58:41.065Z,7.4
2022-11-16T13:59:57.307Z,7.5
2022-11-16T14:01:13.543Z,7.4
2022-11-16T14:02:29.782Z,7.4
2022-11-16T14:03:46.027Z,7.4
2022-11-16T14:05:02.261Z,7.4
2022-11-16T14:06:17.518Z,7.3
2022-11-16T14:07:33.764Z,7.3
2022-11-16T14:08:49.993Z,7.3
2022-11-16T14:10:06.248Z,7.3
2022-11-16T14:11:22.491Z,7.3
2022-11-16T14:12:38.730Z,7.3
2022-11-16T14:13:54.961Z,7.3
2022-11-16T14:15:10.221Z,7.3
2022-11-16T14:16:25.483Z,7.2
2022-11-16T14:17:40.753Z,7.2
2022-11-16T14:18:55.997Z,7.2
2022-11-16T14:20:12.231Z,7.2
2022-11-16T14:21:28.476Z,7.2
2022-11-16T14:22:44.704Z,7.2
2022-11-16T14:24:00.965Z,7.2
2022-11-16T14:25:17.198Z,7.2
2022-11-16T14:26:33.446Z,7.1
2022-11-16T14:27:49.676Z,7.1
2022-11-16T14:29:05.913Z,7.1
2022-11-16T14:30:22.168Z,7.1
2022-11-16T14:31:38.395Z,7.1
2022-11-16T14:32:54.639Z,7.1
2022-11-16T14:34:10.881Z,7.1
2022-11-16T14:35:26.135Z,7.1
2022-11-16T14:36:42.372Z,7.1
2022-11-16T14:37:58.619Z,7.1
2022-11-16T14:39:14.839Z,7
2022-11-16T14:40:31.085Z,7.1
2022-11-16T14:41:47.338Z,7.1
2022-11-16T14:43:03.572Z,7
2022-11-16T14:44:18.833Z,7.1
2022-11-16T14:45:34.077Z,7
2022-11-16T14:46:50.319Z,7
2022-11-16T14:48:06.552Z,7
2022-11-16T14:49:22.805Z,7
2022-11-16T14:50:39.057Z,7
2022-11-16T14:51:55.286Z,7
2022-11-16T14:53:11.533Z,6.9
2022-11-16T14:54:27.767Z,7
2022-11-16T14:55:44.005Z,6.9
2022-11-16T14:57:00.245Z,6.9
2022-11-16T14:58:16.482Z,6.9
2022-11-16T14:59:32.732Z,6.9
2022-11-16T15:00:48.950Z,6.9
2022-11-16T15:02:04.217Z,6.9
2022-11-16T15:03:20.472Z,6.9
2022-11-16T15:04:36.700Z,6.9
2022-11-16T15:05:52.941Z,6.9
2022-11-16T15:07:09.192Z,6.9
2022-11-16T15:08:25.411Z,6.9
2022-11-16T15:09:41.664Z,6.9
2022-11-16T15:10:56.926Z,6.9
2022-11-16T15:12:12.173Z,6.9
2022-11-16T15:13:27.447Z,6.9
2022-11-16T15:14:42.704Z,6.9
2022-11-16T15:15:57.947Z,6.9
2022-11-16T15:17:13.198Z,6.8
2022-11-16T15:18:29.453Z,6.8
2022-11-16T15:19:45.684Z,6.8
2022-11-16T15:21:01.924Z,6.8
2022-11-16T15:22:18.163Z,6.8
2022-11-16T15:23:34.398Z,6.8
2022-11-16T15:24:50.650Z,6.7
2022-11-16T15:26:06.880Z,6.7
2022-11-16T15:27:23.123Z,6.7
2022-11-16T15:28:39.363Z,6.7
2022-11-16T15:29:55.608Z,6.7
2022-11-16T15:31:11.852Z,6.7
2022-11-16T15:32:28.092Z,6.7
2022-11-16T15:33:43.328Z,6.7
2022-11-16T15:34:59.581Z,6.7
2022-11-16T15:36:15.817Z,6.7
2022-11-16T15:37:32.057Z,6.7
2022-11-16T15:38:48.312Z,6.7
2022-11-16T15:40:04.541Z,6.7
2022-11-16T15:41:20.778Z,6.7
2022-11-16T15:42:36.052Z,6.6
2022-11-16T15:43:51.296Z,6.6
2022-11-16T15:45:07.535Z,6.7
2022-11-16T15:46:23.783Z,6.6
2022-11-16T15:47:40.032Z,6.7
2022-11-16T15:48:56.260Z,6.6
2022-11-16T15:50:12.493Z,6.6
2022-11-16T15:51:28.737Z,6.6
2022-11-16T15:52:44.958Z,6.6
2022-11-16T15:54:01.215Z,6.6
2022-11-16T15:55:17.453Z,6.6
2022-11-16T15:56:33.699Z,6.6
2022-11-16T15:57:49.948Z,6.6
2022-11-16T15:59:06.178Z,6.6
2022-11-16T16:00:21.435Z,6.6
2022-11-16T16:01:37.677Z,6.6
2022-11-16T16:02:53.920Z,6.6
2022-11-16T16:04:10.134Z,6.6
2022-11-16T16:05:26.403Z,6.6
2022-11-16T16:06:42.629Z,6.6
2022-11-16T16:07:58.878Z,6.6
2022-11-16T16:09:14.116Z,6.6
2022-11-16T16:10:29.392Z,6.5
2022-11-16T16:11:45.638Z,6.6
2022-11-16T16:13:01.882Z,6.5
2022-11-16T16:14:18.103Z,6.5
2022-11-16T16:15:34.358Z,6.5
2022-11-16T16:16:50.570Z,6.6
2022-11-16T16:18:06.829Z,6.5
2022-11-16T16:19:23.063Z,6.6
2022-11-16T16:20:39.312Z,6.5
2022-11-16T16:21:55.550Z,6.6
2022-11-16T16:23:11.784Z,6.5
2022-11-16T16:24:28.036Z,6.5
2022-11-16T16:25:44.267Z,6.5
2022-11-16T16:26:59.522Z,6.5
2022-11-16T16:28:15.764Z,6.5
2022-11-16T16:29:32.000Z,6.5
2022-11-16T16:30:48.239Z,6.5
2022-11-16T16:32:04.478Z,6.5
2022-11-16T16:33:20.720Z,6.5
2022-11-16T16:34:36.965Z,6.5
2022-11-16T16:35:52.220Z,6.5
2022-11-16T16:37:07.485Z,6.5
2022-11-16T16:38:22.739Z,6.5
2022-11-16T16:39:37.995Z,6.5
2022-11-16T16:40:54.217Z,6.5
2022-11-16T16:42:10.476Z,6.5
2022-11-16T16:43:26.730Z,6.4
2022-11-16T16:44:42.941Z,6.5
2022-11-16T16:45:59.201Z,6.5
2022-11-16T16:47:15.448Z,6.5
2022-11-16T16:48:31.673Z,6.5
2022-11-16T16:49:47.918Z,6.5
2022-11-16T16:51:04.156Z,6.5
2022-11-16T16:52:20.407Z,6.5
2022-11-16T16:53:36.615Z,6.5
2022-11-16T16:54:52.884Z,6.5
2022-11-16T16:56:08.126Z,6.5
2022-11-16T16:58:40.615Z,6.5
2022-11-16T16:59:56.858Z,6.5
2022-11-16T17:01:13.094Z,6.4
2022-11-16T17:02:29.344Z,6.4
2022-11-16T17:03:45.583Z,6.4
2022-11-16T17:05:00.835Z,6.5
2022-11-16T17:06:16.095Z,6.4
2022-11-16T17:07:32.326Z,6.5
2022-11-16T17:08:48.576Z,6.5
2022-11-16T17:10:04.785Z,6.5
2022-11-16T17:11:21.028Z,6.4
2022-11-16T17:12:37.293Z,6.4
2022-11-16T17:13:53.529Z,6.4
2022-11-16T17:15:09.769Z,6.4
2022-11-16T17:16:26.012Z,6.4
2022-11-16T17:17:42.242Z,6.4
2022-11-16T17:18:57.514Z,6.4
2022-11-16T17:20:13.726Z,6.4
2022-11-16T17:21:29.981Z,6.4
2022-11-16T17:22:46.222Z,6.4
2022-11-16T17:24:02.462Z,6.4
2022-11-16T17:25:18.711Z,6.4
2022-11-16T17:26:34.957Z,6.4
2022-11-16T17:27:51.189Z,6.4
2022-11-16T17:29:07.424Z,6.4
2022-11-16T17:30:23.669Z,6.4
2022-11-16T17:31:38.940Z,6.4
2022-11-16T17:32:54.181Z,6.4
2022-11-16T17:34:09.432Z,6.4
2022-11-16T17:35:24.714Z,6.4
2022-11-16T17:36:39.975Z,6.4
2022-11-16T17:37:55.228Z,6.4
2022-11-16T17:39:11.455Z,6.4
2022-11-16T17:40:27.693Z,6.3
2022-11-16T17:41:43.936Z,6.3
2022-11-16T17:43:00.156Z,6.3
2022-11-16T17:44:16.422Z,6.3
2022-11-16T17:45:32.660Z,6.3
2022-11-16T17:46:48.900Z,6.3
2022-11-16T17:48:05.137Z,6.3
2022-11-16T17:49:21.369Z,6.3
2022-11-16T17:50:37.621Z,6.4
2022-11-16T17:51:53.859Z,6.4
2022-11-16T17:53:10.098Z,6.3
2022-11-16T17:54:25.352Z,6.3
2022-11-16T17:55:41.577Z,6.3
2022-11-16T17:59:30.289Z,6.3
2022-11-16T18:00:45.559Z,6.3
2022-11-16T18:03:17.052Z,6.3
2022-11-16T18:04:33.296Z,6.3
2022-11-16T18:05:49.532Z,6.3
2022-11-16T18:07:05.782Z,6.3
2022-11-16T18:08:22.015Z,6.3
2022-11-16T18:10:54.485Z,6.2
2022-11-16T18:15:59.459Z,6.2
2022-11-16T18:17:15.703Z,6.2
2022-11-16T18:18:30.948Z,6.2
2022-11-16T18:21:03.420Z,6.2
2022-11-16T18:24:52.143Z,6.2
2022-11-16T18:26:07.407Z,6.2
2022-11-16T18:32:28.599Z,6.1
2022-11-16T18:38:49.809Z,6.2
2022-11-16T18:40:05.073Z,6.2
2022-11-16T18:41:21.299Z,6.1
2022-11-16T18:42:36.574Z,6.1
2022-11-16T18:43:52.803Z,6.1
2022-11-16T18:46:25.286Z,6.1
2022-11-16T18:47:41.515Z,6.1
2022-11-16T18:48:57.766Z,6.1
2022-11-16T18:50:13.993Z,6.1
2022-11-16T18:51:30.243Z,6.1
2022-11-16T18:54:02.730Z,6.1
2022-11-16T18:56:35.202Z,6.1
2022-11-16T18:57:51.430Z,6.1
2022-11-16T18:59:06.697Z,6.1
2022-11-16T19:01:39.187Z,6.1
2022-11-16T19:02:55.426Z,6.1
2022-11-16T19:04:11.000Z,6
2022-11-16T19:05:27.893Z,6
2022-11-16T19:10:44.587Z,5.9
2022-11-16T19:11:49.094Z,5.9
2022-11-16T19:13:04.364Z,5.9
2022-11-16T19:15:36.838Z,5.9
2022-11-16T19:18:08.344Z,5.9
2022-11-16T19:19:24.583Z,5.8
2022-11-16T19:21:57.046Z,5.8
2022-11-16T19:23:13.290Z,5.8
2022-11-16T19:27:02.008Z,5.8
2022-11-16T19:28:18.259Z,5.8